createdAt,value
2022-12-01T00:00:38.656Z,2.57
2022-12-01T00:01:38.671Z,2.60
2022-12-01T00:02:38.761Z,2.57
2022-12-01T00:03:38.613Z,2.56
2022-12-01T00:04:38.597Z,2.54
2022-12-01T00:05:38.562Z,2.54
2022-12-01T00:06:38.567Z,2.53
2022-12-01T00:07:38.567Z,2.49
2022-12-01T00:08:38.574Z,2.44
2022-12-01T00:09:38.512Z,2.43
2022-12-01T00:10:38.510Z,2.44
2022-12-01T00:11:38.489Z,2.46
2022-12-01T00:12:38.478Z,2.47
2022-12-01T00:13:38.490Z,2.46
2022-12-01T00:14:38.483Z,2.47
2022-12-01T00:15:38.458Z,2.46
2022-12-01T00:16:38.547Z,2.46
2022-12-01T00:17:38.417Z,2.46
2022-12-01T00:18:38.421Z,2.44
2022-12-01T00:19:38.418Z,2.44
2022-12-01T00:20:38.383Z,2.44
2022-12-01T00:21:38.384Z,2.46
2022-12-01T00:22:38.362Z,2.44
2022-12-01T00:23:38.342Z,2.47
2022-12-01T00:24:38.362Z,2.46
2022-12-01T00:25:38.318Z,2.46
2022-12-01T00:26:38.304Z,2.46
2022-12-01T00:27:38.284Z,2.46
2022-12-01T00:28:38.275Z,2.47
2022-12-01T00:29:38.294Z,2.49
2022-12-01T00:30:38.262Z,2.47
2022-12-01T00:31:38.373Z,2.49
2022-12-01T00:32:38.217Z,2.47
2022-12-01T00:33:38.211Z,2.49
2022-12-01T00:34:38.223Z,2.50
2022-12-01T00:35:38.173Z,2.49
2022-12-01T00:36:38.179Z,2.49
2022-12-01T00:37:38.150Z,2.49
2022-12-01T00:38:38.144Z,2.49
2022-12-01T00:39:38.140Z,2.47
2022-12-01T00:40:38.125Z,2.49
2022-12-01T00:41:38.159Z,2.49
2022-12-01T00:42:38.097Z,2.49
2022-12-01T00:43:38.074Z,2.49
2022-12-01T00:44:38.087Z,2.49
2022-12-01T00:45:38.122Z,2.50
2022-12-01T00:46:38.053Z,2.50
2022-12-01T00:47:38.014Z,2.49
2022-12-01T00:48:38.005Z,2.49
2022-12-01T00:49:38.018Z,2.47
2022-12-01T00:50:38.072Z,2.49
2022-12-01T00:51:37.960Z,2.47
2022-12-01T00:52:37.991Z,2.49
2022-12-01T00:53:37.975Z,2.46
2022-12-01T00:54:37.972Z,2.46
2022-12-01T00:55:37.917Z,2.46
2022-12-01T00:56:37.909Z,2.44
2022-12-01T00:57:37.893Z,2.44
2022-12-01T00:58:37.892Z,2.43
2022-12-01T00:59:37.896Z,2.42
2022-12-01T01:00:37.862Z,2.43
2022-12-01T01:01:37.888Z,2.42
2022-12-01T01:02:37.892Z,2.39
2022-12-01T01:03:37.859Z,2.38
2022-12-01T01:04:37.808Z,2.35
2022-12-01T01:05:37.799Z,2.36
2022-12-01T01:06:37.772Z,2.38
2022-12-01T01:07:37.810Z,2.38
2022-12-01T01:08:37.762Z,2.39
2022-12-01T01:09:37.874Z,2.39
2022-12-01T01:10:37.795Z,2.39
2022-12-01T01:11:37.747Z,2.42
2022-12-01T01:12:37.705Z,2.42
2022-12-01T01:13:37.686Z,2.44
2022-12-01T01:14:37.672Z,2.46
2022-12-01T01:15:37.685Z,2.46
2022-12-01T01:16:37.670Z,2.44
2022-12-01T01:17:37.625Z,2.44
2022-12-01T01:18:37.648Z,2.46
2022-12-01T01:19:37.594Z,2.47
2022-12-01T01:20:37.598Z,2.47
2022-12-01T01:21:37.573Z,2.47
2022-12-01T01:22:37.607Z,2.50
2022-12-01T01:23:37.545Z,2.49
2022-12-01T01:24:37.543Z,2.47
2022-12-01T01:25:37.526Z,2.47
2022-12-01T01:26:37.525Z,2.47
2022-12-01T01:27:37.527Z,2.46
2022-12-01T01:28:37.518Z,2.44
2022-12-01T01:29:37.459Z,2.44
2022-12-01T01:30:37.517Z,2.46
2022-12-01T01:31:37.442Z,2.42
2022-12-01T01:32:37.467Z,2.42
2022-12-01T01:33:37.414Z,2.39
2022-12-01T01:34:37.435Z,2.43
2022-12-01T01:35:37.386Z,2.43
2022-12-01T01:36:37.380Z,2.43
2022-12-01T01:37:37.378Z,2.46
2022-12-01T01:38:37.359Z,2.47
2022-12-01T01:39:37.361Z,2.49
2022-12-01T01:40:37.329Z,2.47
2022-12-01T01:41:37.317Z,2.46
2022-12-01T01:42:37.316Z,2.49
2022-12-01T01:43:37.287Z,2.46
2022-12-01T01:44:37.301Z,2.46
2022-12-01T01:45:37.327Z,2.42
2022-12-01T01:46:37.253Z,2.36
2022-12-01T01:47:37.265Z,2.36
2022-12-01T01:48:37.231Z,2.33
2022-12-01T01:49:37.228Z,2.36
2022-12-01T01:50:37.226Z,2.35
2022-12-01T01:51:37.174Z,2.38
2022-12-01T01:52:37.174Z,2.38
2022-12-01T01:53:37.153Z,2.39
2022-12-01T01:54:37.183Z,2.38
2022-12-01T01:55:37.138Z,2.39
2022-12-01T01:56:37.120Z,2.42
2022-12-01T01:57:37.124Z,2.43
2022-12-01T01:58:37.088Z,2.44
2022-12-01T01:59:37.094Z,2.43
2022-12-01T02:00:37.072Z,2.46
2022-12-01T02:01:37.183Z,2.46
2022-12-01T02:02:37.127Z,2.49
2022-12-01T02:03:37.016Z,2.50
2022-12-01T02:04:37.055Z,2.50
2022-12-01T02:05:37.020Z,2.51
2022-12-01T02:06:36.990Z,2.50
2022-12-01T02:07:37.013Z,2.50
2022-12-01T02:08:36.994Z,2.51
2022-12-01T02:09:36.940Z,2.49
2022-12-01T02:10:36.938Z,2.49
2022-12-01T02:11:36.915Z,2.47
2022-12-01T02:12:36.909Z,2.47
2022-12-01T02:13:36.916Z,2.46
2022-12-01T02:14:36.908Z,2.46
2022-12-01T02:15:36.960Z,2.44
2022-12-01T02:16:36.920Z,2.43
2022-12-01T02:17:41.522Z,2.42
2022-12-01T02:18:36.836Z,2.39
2022-12-01T02:19:36.832Z,2.39
2022-12-01T02:20:36.816Z,2.44
2022-12-01T02:21:36.780Z,2.46
2022-12-01T02:22:36.817Z,2.47
2022-12-01T02:23:36.763Z,2.49
2022-12-01T02:24:36.750Z,2.49
2022-12-01T02:25:36.732Z,2.49
2022-12-01T02:26:36.717Z,2.49
2022-12-01T02:27:36.728Z,2.49
2022-12-01T02:28:36.725Z,2.49
2022-12-01T02:29:36.688Z,2.49
2022-12-01T02:30:36.709Z,2.46
2022-12-01T02:31:36.647Z,2.46
2022-12-01T02:32:36.677Z,2.43
2022-12-01T02:33:36.623Z,2.39
2022-12-01T02:34:36.619Z,2.36
2022-12-01T02:35:36.605Z,2.36
2022-12-01T02:36:36.591Z,2.38
2022-12-01T02:37:36.602Z,2.38
2022-12-01T02:38:36.563Z,2.38
2022-12-01T02:39:36.543Z,2.36
2022-12-01T02:40:36.547Z,2.38
2022-12-01T02:41:36.543Z,2.38
2022-12-01T02:42:36.518Z,2.39
2022-12-01T02:43:36.494Z,2.42
2022-12-01T02:44:36.485Z,2.42
2022-12-01T02:45:36.495Z,2.44
2022-12-01T02:46:36.537Z,2.44
2022-12-01T02:47:36.478Z,2.44
2022-12-01T02:48:36.434Z,2.44
2022-12-01T02:49:36.424Z,2.43
2022-12-01T02:50:36.418Z,2.46
2022-12-01T02:51:36.414Z,2.44
2022-12-01T02:52:36.383Z,2.44
2022-12-01T02:53:36.370Z,2.44
2022-12-01T02:54:36.380Z,2.44
2022-12-01T02:55:36.345Z,2.44
2022-12-01T02:56:36.332Z,2.46
2022-12-01T02:57:36.320Z,2.46
2022-12-01T02:58:36.324Z,2.46
2022-12-01T02:59:36.279Z,2.46
2022-12-01T03:00:36.278Z,2.46
2022-12-01T03:01:36.360Z,2.46
2022-12-01T03:02:36.337Z,2.49
2022-12-01T03:03:36.231Z,2.49
2022-12-01T03:04:36.250Z,2.49
2022-12-01T03:05:36.207Z,2.50
2022-12-01T03:06:36.229Z,2.53
2022-12-01T03:07:36.267Z,2.51
2022-12-01T03:08:36.177Z,2.51
2022-12-01T03:09:36.157Z,2.50
2022-12-01T03:10:36.151Z,2.47
2022-12-01T03:11:36.127Z,2.46
2022-12-01T03:12:36.150Z,2.46
2022-12-01T03:13:36.108Z,2.47
2022-12-01T03:14:36.106Z,2.46
2022-12-01T03:15:36.185Z,2.46
2022-12-01T03:16:36.103Z,2.46
2022-12-01T03:17:36.076Z,2.44
2022-12-01T03:18:36.040Z,2.46
2022-12-01T03:19:36.048Z,2.46
2022-12-01T03:20:36.049Z,2.46
2022-12-01T03:21:35.993Z,2.47
2022-12-01T03:22:35.991Z,2.49
2022-12-01T03:23:35.980Z,2.49
2022-12-01T03:24:35.970Z,2.49
2022-12-01T03:25:35.968Z,2.47
2022-12-01T03:26:35.957Z,2.50
2022-12-01T03:27:35.932Z,2.49
2022-12-01T03:28:35.923Z,2.50
2022-12-01T03:29:35.918Z,2.49
2022-12-01T03:30:35.891Z,2.50
2022-12-01T03:31:35.954Z,2.50
2022-12-01T03:32:35.861Z,2.51
2022-12-01T03:33:35.866Z,2.53
2022-12-01T03:34:35.825Z,2.53
2022-12-01T03:35:35.826Z,2.53
2022-12-01T03:36:35.820Z,2.53
2022-12-01T03:37:35.823Z,2.54
2022-12-01T03:38:35.778Z,2.54
2022-12-01T03:39:35.802Z,2.56
2022-12-01T03:40:35.747Z,2.53
2022-12-01T03:41:35.779Z,2.51
2022-12-01T03:42:35.794Z,2.50
2022-12-01T03:43:35.714Z,2.51
2022-12-01T03:44:35.693Z,2.51
2022-12-01T03:45:35.684Z,2.46
2022-12-01T03:46:35.769Z,2.49
2022-12-01T03:47:35.721Z,2.47
2022-12-01T03:48:35.642Z,2.44
2022-12-01T03:49:35.643Z,2.43
2022-12-01T03:50:35.617Z,2.44
2022-12-01T03:51:35.640Z,2.43
2022-12-01T03:52:35.642Z,2.43
2022-12-01T03:53:35.614Z,2.43
2022-12-01T03:54:35.561Z,2.39
2022-12-01T03:55:35.558Z,2.35
2022-12-01T03:56:35.542Z,2.36
2022-12-01T03:57:35.558Z,2.36
2022-12-01T03:58:35.523Z,2.38
2022-12-01T03:59:35.505Z,2.38
2022-12-01T04:00:35.491Z,2.38
2022-12-01T04:01:35.585Z,2.38
2022-12-01T04:02:35.549Z,2.42
2022-12-01T04:03:35.452Z,2.43
2022-12-01T04:04:35.453Z,2.43
2022-12-01T04:05:35.455Z,2.43
2022-12-01T04:06:35.418Z,2.44
2022-12-01T04:07:35.440Z,2.46
2022-12-01T04:08:35.380Z,2.47
2022-12-01T04:09:35.413Z,2.47
2022-12-01T04:10:35.375Z,2.46
2022-12-01T04:11:35.351Z,2.46
2022-12-01T04:12:35.324Z,2.47
2022-12-01T04:13:35.332Z,2.49
2022-12-01T04:14:35.346Z,2.47
2022-12-01T04:15:35.323Z,2.47
2022-12-01T04:16:35.385Z,2.47
2022-12-01T04:17:35.292Z,2.47
2022-12-01T04:18:35.270Z,2.50
2022-12-01T04:19:35.263Z,2.49
2022-12-01T04:20:35.228Z,2.49
2022-12-01T04:21:35.257Z,2.47
2022-12-01T04:22:35.193Z,2.47
2022-12-01T04:23:35.205Z,2.50
2022-12-01T04:24:35.187Z,2.49
2022-12-01T04:25:35.165Z,2.49
2022-12-01T04:26:35.177Z,2.51
2022-12-01T04:27:35.141Z,2.50
2022-12-01T04:28:35.121Z,2.50
2022-12-01T04:29:35.138Z,2.50
2022-12-01T04:30:35.120Z,2.50
2022-12-01T04:31:35.233Z,2.50
2022-12-01T04:32:35.061Z,2.50
2022-12-01T04:33:35.066Z,2.49
2022-12-01T04:34:35.058Z,2.50
2022-12-01T04:35:35.035Z,2.50
2022-12-01T04:36:35.037Z,2.50
2022-12-01T04:37:35.006Z,2.50
2022-12-01T04:38:34.993Z,2.50
2022-12-01T04:39:35.001Z,2.49
2022-12-01T04:40:34.957Z,2.50
2022-12-01T04:41:34.971Z,2.49
2022-12-01T04:42:34.935Z,2.47
2022-12-01T04:43:34.954Z,2.47
2022-12-01T04:44:35.381Z,2.47
2022-12-01T04:45:34.953Z,2.47
2022-12-01T04:46:34.939Z,2.47
2022-12-01T04:47:34.879Z,2.46
2022-12-01T04:48:34.854Z,2.47
2022-12-01T04:49:34.872Z,2.47
2022-12-01T04:50:34.838Z,2.47
2022-12-01T04:51:34.859Z,2.49
2022-12-01T04:52:35.523Z,2.50
2022-12-01T04:53:34.802Z,2.50
2022-12-01T04:54:34.787Z,2.53
2022-12-01T04:55:34.781Z,2.54
2022-12-01T04:56:34.771Z,2.56
2022-12-01T04:57:34.743Z,2.57
2022-12-01T04:58:34.775Z,2.62
2022-12-01T04:59:34.720Z,2.61
2022-12-01T05:00:34.743Z,2.62
2022-12-01T05:01:34.751Z,2.62
2022-12-01T05:02:34.781Z,2.64
2022-12-01T05:03:34.672Z,2.62
2022-12-01T05:04:34.645Z,2.62
2022-12-01T05:05:34.637Z,2.61
2022-12-01T05:06:34.649Z,2.62
2022-12-01T05:07:34.650Z,2.61
2022-12-01T05:08:34.585Z,2.60
2022-12-01T05:09:34.613Z,2.61
2022-12-01T05:10:34.569Z,2.62
2022-12-01T05:11:34.558Z,2.62
2022-12-01T05:12:34.578Z,2.61
2022-12-01T05:13:34.531Z,2.62
2022-12-01T05:14:34.529Z,2.61
2022-12-01T05:15:34.508Z,2.60
2022-12-01T05:16:34.570Z,2.61
2022-12-01T05:17:37.120Z,2.61
2022-12-01T05:18:34.518Z,2.57
2022-12-01T05:19:34.451Z,2.56
2022-12-01T05:20:34.428Z,2.54
2022-12-01T05:21:34.435Z,2.51
2022-12-01T05:23:03.798Z,2.49
2022-12-01T05:23:34.410Z,2.50
2022-12-01T05:24:34.391Z,2.50
2022-12-01T05:25:34.375Z,2.50
2022-12-01T05:26:34.373Z,2.50
2022-12-01T05:27:34.382Z,2.51
2022-12-01T05:28:34.324Z,2.51
2022-12-01T05:29:34.354Z,2.53
2022-12-01T05:30:34.303Z,2.53
2022-12-01T05:31:34.407Z,2.51
2022-12-01T05:32:34.278Z,2.51
2022-12-01T05:33:34.276Z,2.53
2022-12-01T05:34:34.275Z,2.56
2022-12-01T05:35:34.244Z,2.54
2022-12-01T05:36:34.225Z,2.54
2022-12-01T05:37:34.217Z,2.60
2022-12-01T05:38:34.228Z,2.60
2022-12-01T05:39:34.193Z,2.57
2022-12-01T05:40:34.179Z,2.60
2022-12-01T05:41:34.164Z,2.60
2022-12-01T05:42:34.137Z,2.61
2022-12-01T05:43:34.179Z,2.62
2022-12-01T05:44:34.161Z,2.61
2022-12-01T05:45:34.246Z,2.61
2022-12-01T05:46:34.090Z,2.61
2022-12-01T05:47:34.085Z,2.62
2022-12-01T05:48:34.219Z,2.62
2022-12-01T05:49:34.084Z,2.62
2022-12-01T05:50:34.037Z,2.62
2022-12-01T05:51:34.056Z,2.62
2022-12-01T05:52:34.009Z,2.61
2022-12-01T05:53:34.007Z,2.61
2022-12-01T05:54:33.985Z,2.62
2022-12-01T05:55:34.018Z,2.64
2022-12-01T05:56:33.970Z,2.65
2022-12-01T05:57:33.968Z,2.65
2022-12-01T05:58:33.937Z,2.68
2022-12-01T05:59:33.959Z,2.69
2022-12-01T06:00:33.910Z,2.71
2022-12-01T06:01:33.997Z,2.69
2022-12-01T06:02:33.906Z,2.69
2022-12-01T06:03:33.884Z,2.71
2022-12-01T06:04:33.891Z,2.69
2022-12-01T06:05:33.854Z,2.65
2022-12-01T06:06:33.865Z,2.65
2022-12-01T06:07:33.897Z,2.65
2022-12-01T06:08:33.812Z,2.65
2022-12-01T06:09:33.803Z,2.67
2022-12-01T06:10:33.789Z,2.65
2022-12-01T06:11:33.804Z,2.68
2022-12-01T06:12:33.753Z,2.68
2022-12-01T06:13:33.748Z,2.68
2022-12-01T06:14:33.725Z,2.69
2022-12-01T06:15:33.765Z,2.68
2022-12-01T06:16:33.754Z,2.68
2022-12-01T06:17:38.639Z,2.69
2022-12-01T06:18:33.692Z,2.71
2022-12-01T06:19:33.700Z,2.71
2022-12-01T06:20:33.646Z,2.72
2022-12-01T06:21:33.639Z,2.71
2022-12-01T06:22:33.619Z,2.72
2022-12-01T06:23:33.622Z,2.72
2022-12-01T06:24:33.619Z,2.71
2022-12-01T06:25:33.592Z,2.72
2022-12-01T06:26:33.569Z,2.69
2022-12-01T06:27:33.607Z,2.69
2022-12-01T06:28:33.542Z,2.71
2022-12-01T06:29:35.667Z,2.71
2022-12-01T06:30:33.528Z,2.68
2022-12-01T06:31:33.588Z,2.71
2022-12-01T06:32:33.501Z,2.71
2022-12-01T06:33:33.498Z,2.69
2022-12-01T06:34:33.492Z,2.69
2022-12-01T06:35:33.496Z,2.69
2022-12-01T06:36:33.465Z,2.68
2022-12-01T06:37:33.456Z,2.69
2022-12-01T06:38:33.415Z,2.69
2022-12-01T06:39:33.416Z,2.69
2022-12-01T06:40:33.389Z,2.67
2022-12-01T06:41:33.412Z,2.67
2022-12-01T06:42:33.360Z,2.68
2022-12-01T06:43:33.348Z,2.68
2022-12-01T06:44:33.336Z,2.71
2022-12-01T06:45:33.401Z,2.72
2022-12-01T06:46:33.390Z,2.72
2022-12-01T06:47:33.309Z,2.72
2022-12-01T06:48:33.300Z,2.71
2022-12-01T06:49:33.288Z,2.72
2022-12-01T06:50:33.291Z,2.72
2022-12-01T06:51:33.253Z,2.74
2022-12-01T06:52:33.225Z,2.71
2022-12-01T06:53:33.241Z,2.72
2022-12-01T06:54:33.197Z,2.75
2022-12-01T06:55:33.224Z,2.74
2022-12-01T06:56:33.198Z,2.74
2022-12-01T06:57:33.172Z,2.75
2022-12-01T06:58:33.148Z,2.79
2022-12-01T06:59:33.168Z,2.77
2022-12-01T07:00:33.126Z,2.79
2022-12-01T07:01:33.170Z,2.79
2022-12-01T07:02:33.149Z,2.79
2022-12-01T07:03:33.116Z,2.77
2022-12-01T07:04:33.074Z,2.77
2022-12-01T07:05:33.067Z,2.80
2022-12-01T07:06:33.045Z,2.79
2022-12-01T07:07:33.093Z,2.77
2022-12-01T07:08:33.039Z,2.77
2022-12-01T07:09:33.043Z,2.79
2022-12-01T07:10:33.016Z,2.79
2022-12-01T07:11:32.997Z,2.79
2022-12-01T07:12:32.967Z,2.79
2022-12-01T07:13:34.016Z,2.74
2022-12-01T07:14:32.941Z,2.74
2022-12-01T07:15:32.934Z,2.72
2022-12-01T07:16:32.998Z,2.71
2022-12-01T07:17:32.905Z,2.69
2022-12-01T07:18:32.910Z,2.68
2022-12-01T07:19:32.912Z,2.69
2022-12-01T07:20:32.868Z,2.68
2022-12-01T07:21:32.890Z,2.71
2022-12-01T07:22:33.161Z,2.72
2022-12-01T07:23:32.869Z,2.74
2022-12-01T07:24:32.807Z,2.74
2022-12-01T07:25:32.802Z,2.75
2022-12-01T07:26:32.774Z,2.72
2022-12-01T07:27:32.827Z,2.74
2022-12-01T07:28:32.852Z,2.74
2022-12-01T07:29:32.768Z,2.75
2022-12-01T07:30:32.798Z,2.75
2022-12-01T07:31:32.765Z,2.75
2022-12-01T07:32:32.698Z,2.75
2022-12-01T07:33:32.766Z,2.77
2022-12-01T07:34:32.723Z,2.79
2022-12-01T07:35:32.667Z,2.77
2022-12-01T07:36:32.650Z,2.80
2022-12-01T07:37:32.646Z,2.82
2022-12-01T07:38:32.621Z,2.83
2022-12-01T07:39:32.654Z,2.86
2022-12-01T07:40:32.594Z,2.86
2022-12-01T07:41:32.594Z,2.85
2022-12-01T07:42:32.582Z,2.86
2022-12-01T07:43:32.556Z,2.87
2022-12-01T07:44:32.584Z,2.89
2022-12-01T07:45:32.553Z,2.89
2022-12-01T07:46:32.639Z,2.87
2022-12-01T07:47:32.503Z,2.86
2022-12-01T07:48:32.510Z,2.87
2022-12-01T07:49:32.472Z,2.87
2022-12-01T07:50:32.498Z,2.89
2022-12-01T07:51:32.449Z,2.87
2022-12-01T07:52:32.467Z,2.90
2022-12-01T07:53:32.458Z,2.90
2022-12-01T07:54:32.417Z,2.90
2022-12-01T07:55:32.394Z,2.89
2022-12-01T07:56:32.384Z,2.89
2022-12-01T07:57:32.392Z,2.89
2022-12-01T07:58:32.365Z,2.87
2022-12-01T07:59:32.343Z,2.89
2022-12-01T08:00:32.341Z,2.90
2022-12-01T08:01:32.329Z,2.89
2022-12-01T08:02:32.427Z,2.89
2022-12-01T08:03:32.286Z,2.89
2022-12-01T08:04:32.321Z,2.90
2022-12-01T08:05:32.286Z,2.90
2022-12-01T08:06:32.263Z,2.92
2022-12-01T08:07:32.324Z,2.92
2022-12-01T08:08:32.236Z,2.90
2022-12-01T08:09:32.258Z,2.95
2022-12-01T08:10:32.214Z,2.93
2022-12-01T08:11:32.185Z,2.95
2022-12-01T08:12:32.217Z,2.97
2022-12-01T08:13:32.221Z,2.93
2022-12-01T08:14:32.159Z,2.92
2022-12-01T08:15:32.171Z,2.95
2022-12-01T08:16:32.182Z,2.93
2022-12-01T08:17:32.109Z,2.93
2022-12-01T08:18:32.206Z,2.93
2022-12-01T08:19:32.111Z,2.93
2022-12-01T08:20:32.077Z,2.97
2022-12-01T08:21:32.082Z,2.95
2022-12-01T08:22:32.047Z,2.95
2022-12-01T08:23:32.056Z,2.97
2022-12-01T08:24:32.034Z,2.97
2022-12-01T08:25:32.013Z,3.00
2022-12-01T08:26:32.034Z,3.00
2022-12-01T08:27:31.971Z,3.01
2022-12-01T08:28:31.971Z,3.05
2022-12-01T08:29:32.007Z,3.08
2022-12-01T08:30:31.951Z,3.10
2022-12-01T08:31:31.985Z,3.13
2022-12-01T08:32:31.922Z,3.14
2022-12-01T08:33:31.901Z,3.13
2022-12-01T08:34:31.925Z,3.14
2022-12-01T08:35:31.869Z,3.13
2022-12-01T08:36:31.889Z,3.16
2022-12-01T08:37:31.844Z,3.14
2022-12-01T08:38:31.877Z,3.14
2022-12-01T08:39:31.827Z,3.16
2022-12-01T08:40:31.886Z,3.13
2022-12-01T08:41:31.811Z,3.14
2022-12-01T08:42:31.797Z,3.16
2022-12-01T08:43:56.685Z,3.16
2022-12-01T08:44:31.805Z,3.18
2022-12-01T08:45:31.741Z,3.19
2022-12-01T08:46:31.832Z,3.19
2022-12-01T08:47:31.715Z,3.14
2022-12-01T08:48:31.734Z,3.14
2022-12-01T08:49:31.723Z,3.13
2022-12-01T08:50:31.678Z,3.13
2022-12-01T08:51:31.665Z,3.14
2022-12-01T08:52:31.666Z,3.14
2022-12-01T08:53:31.645Z,3.16
2022-12-01T08:54:31.653Z,3.16
2022-12-01T08:55:31.630Z,3.19
2022-12-01T08:56:31.618Z,3.16
2022-12-01T08:57:31.578Z,3.14
2022-12-01T08:58:31.571Z,3.16
2022-12-01T08:59:31.588Z,3.16
2022-12-01T09:00:31.556Z,3.16
2022-12-01T09:01:31.560Z,3.18
2022-12-01T09:02:31.660Z,3.18
2022-12-01T09:03:31.507Z,3.16
2022-12-01T09:04:31.533Z,3.14
2022-12-01T09:05:31.478Z,3.13
2022-12-01T09:06:31.483Z,3.14
2022-12-01T09:07:31.541Z,3.18
2022-12-01T09:08:31.449Z,3.19
2022-12-01T09:09:31.433Z,3.21
2022-12-01T09:10:31.493Z,3.21
2022-12-01T09:11:31.420Z,3.23
2022-12-01T09:12:31.423Z,3.19
2022-12-01T09:13:31.378Z,3.19
2022-12-01T09:14:31.375Z,3.19
2022-12-01T09:15:31.464Z,3.19
2022-12-01T09:16:31.402Z,3.22
2022-12-01T09:17:31.354Z,3.22
2022-12-01T09:18:31.317Z,3.23
2022-12-01T09:19:31.291Z,3.23
2022-12-01T09:20:31.308Z,3.26
2022-12-01T09:21:31.274Z,3.26
2022-12-01T09:22:31.293Z,3.26
2022-12-01T09:23:31.239Z,3.25
2022-12-01T09:24:31.239Z,3.26
2022-12-01T09:25:31.222Z,3.26
2022-12-01T09:26:31.224Z,3.26
2022-12-01T09:27:31.207Z,3.28
2022-12-01T09:28:31.184Z,3.28
2022-12-01T09:29:31.165Z,3.28
2022-12-01T09:30:31.174Z,3.29
2022-12-01T09:31:31.210Z,3.31
2022-12-01T09:32:31.130Z,3.29
2022-12-01T09:33:31.128Z,3.32
2022-12-01T09:34:31.111Z,3.32
2022-12-01T09:35:31.152Z,3.34
2022-12-01T09:36:31.090Z,3.36
2022-12-01T09:37:31.111Z,3.40
2022-12-01T09:38:31.053Z,3.41
2022-12-01T09:39:31.030Z,3.42
2022-12-01T09:40:31.028Z,3.41
2022-12-01T09:41:31.173Z,3.42
2022-12-01T09:42:35.392Z,3.44
2022-12-01T09:43:30.988Z,3.44
2022-12-01T09:44:30.985Z,3.45
2022-12-01T09:45:30.952Z,3.45
2022-12-01T09:46:31.036Z,3.47
2022-12-01T09:47:30.937Z,3.48
2022-12-01T09:48:30.924Z,3.50
2022-12-01T09:49:30.906Z,3.51
2022-12-01T09:50:30.931Z,3.51
2022-12-01T09:51:30.894Z,3.48
2022-12-01T09:52:30.872Z,3.48
2022-12-01T09:53:30.877Z,3.42
2022-12-01T09:54:30.875Z,3.44
2022-12-01T09:55:30.858Z,3.45
2022-12-01T09:56:30.824Z,3.44
2022-12-01T09:57:30.807Z,3.42
2022-12-01T09:58:30.789Z,3.45
2022-12-01T09:59:30.774Z,3.42
2022-12-01T10:00:30.795Z,3.42
2022-12-01T10:01:30.831Z,3.42
2022-12-01T10:02:30.787Z,3.44
2022-12-01T10:03:30.753Z,3.45
2022-12-01T10:04:30.714Z,3.47
2022-12-01T10:05:30.736Z,3.53
2022-12-01T10:06:30.774Z,3.55
2022-12-01T10:07:30.764Z,3.58
2022-12-01T10:08:30.654Z,3.59
2022-12-01T10:09:30.645Z,3.59
2022-12-01T10:10:30.635Z,3.60
2022-12-01T10:11:30.676Z,3.59
2022-12-01T10:12:30.635Z,3.56
2022-12-01T10:13:30.603Z,3.56
2022-12-01T10:14:30.587Z,3.51
2022-12-01T10:15:30.558Z,3.53
2022-12-01T10:16:30.615Z,3.51
2022-12-01T10:17:30.570Z,3.51
2022-12-01T10:18:30.593Z,3.55
2022-12-01T10:19:30.514Z,3.55
2022-12-01T10:20:30.518Z,3.55
2022-12-01T10:21:30.508Z,3.56
2022-12-01T10:22:30.492Z,3.58
2022-12-01T10:23:30.455Z,3.59
2022-12-01T10:24:30.454Z,3.62
2022-12-01T10:25:30.519Z,3.63
2022-12-01T10:26:30.447Z,3.65
2022-12-01T10:27:30.403Z,3.68
2022-12-01T10:28:30.408Z,3.69
2022-12-01T10:29:30.412Z,3.68
2022-12-01T10:30:30.370Z,3.69
2022-12-01T10:31:30.411Z,3.69
2022-12-01T10:32:30.342Z,3.69
2022-12-01T10:33:30.364Z,3.70
2022-12-01T10:34:30.361Z,3.73
2022-12-01T10:35:30.349Z,3.70
2022-12-01T10:36:30.298Z,3.69
2022-12-01T10:37:30.318Z,3.73
2022-12-01T10:38:30.301Z,3.73
2022-12-01T10:39:30.255Z,3.74
2022-12-01T10:40:30.276Z,3.78
2022-12-01T10:41:30.222Z,3.81
2022-12-01T10:42:30.212Z,3.81
2022-12-01T10:43:30.205Z,3.84
2022-12-01T10:44:30.218Z,3.83
2022-12-01T10:45:30.230Z,3.84
2022-12-01T10:46:30.162Z,3.86
2022-12-01T10:47:30.145Z,3.86
2022-12-01T10:48:30.148Z,3.84
2022-12-01T10:49:30.135Z,3.86
2022-12-01T10:50:30.109Z,3.86
2022-12-01T10:51:30.091Z,3.86
2022-12-01T10:52:30.084Z,3.84
2022-12-01T10:53:30.071Z,3.86
2022-12-01T10:54:30.097Z,3.87
2022-12-01T10:55:30.039Z,3.86
2022-12-01T10:56:30.040Z,3.87
2022-12-01T10:57:30.007Z,3.88
2022-12-01T10:58:30.008Z,3.91
2022-12-01T10:59:30.021Z,3.91
2022-12-01T11:00:58.578Z,3.92
2022-12-01T11:01:30.086Z,3.94
2022-12-01T11:02:30.198Z,3.94
2022-12-01T11:03:30.265Z,3.96
2022-12-01T11:04:29.929Z,3.95
2022-12-01T11:05:29.964Z,3.95
2022-12-01T11:06:29.903Z,3.94
2022-12-01T11:07:29.959Z,3.94
2022-12-01T11:08:29.864Z,3.94
2022-12-01T11:09:29.856Z,3.96
2022-12-01T11:10:29.874Z,3.98
2022-12-01T11:11:29.833Z,3.98
2022-12-01T11:12:29.851Z,3.98
2022-12-01T11:13:29.793Z,3.98
2022-12-01T11:14:29.791Z,3.99
2022-12-01T11:15:29.772Z,3.99
2022-12-01T11:16:29.813Z,3.99
2022-12-01T11:17:29.777Z,3.99
2022-12-01T11:18:29.742Z,3.99
2022-12-01T11:19:29.831Z,3.96
2022-12-01T11:20:29.825Z,3.98
2022-12-01T11:21:29.695Z,3.96
2022-12-01T11:22:29.691Z,4.01
2022-12-01T11:23:29.695Z,3.99
2022-12-01T11:24:29.664Z,3.98
2022-12-01T11:25:29.644Z,3.98
2022-12-01T11:26:29.637Z,3.99
2022-12-01T11:27:29.646Z,3.99
2022-12-01T11:28:29.602Z,3.99
2022-12-01T11:29:29.591Z,3.98
2022-12-01T11:30:29.617Z,3.96
2022-12-01T11:31:29.624Z,3.96
2022-12-01T11:32:29.556Z,3.96
2022-12-01T11:33:29.532Z,3.96
2022-12-01T11:34:29.538Z,3.98
2022-12-01T11:35:29.544Z,3.98
2022-12-01T11:36:29.514Z,3.96
2022-12-01T11:37:29.477Z,3.98
2022-12-01T11:38:30.238Z,3.98
2022-12-01T11:39:29.481Z,3.96
2022-12-01T11:40:29.504Z,3.95
2022-12-01T11:41:29.433Z,3.96
2022-12-01T11:42:29.455Z,3.98
2022-12-01T11:43:29.411Z,3.99
2022-12-01T11:44:50.356Z,4.02
2022-12-01T11:45:29.422Z,4.02
2022-12-01T11:46:29.370Z,4.04
2022-12-01T11:47:29.343Z,4.05
2022-12-01T11:48:29.353Z,4.06
2022-12-01T11:49:29.364Z,4.06
2022-12-01T11:50:29.330Z,4.08
2022-12-01T11:51:29.304Z,4.10
2022-12-01T11:52:29.279Z,4.12
2022-12-01T11:53:29.273Z,4.13
2022-12-01T11:54:29.250Z,4.16
2022-12-01T11:55:29.284Z,4.16
2022-12-01T11:56:29.237Z,4.17
2022-12-01T11:57:36.384Z,4.19
2022-12-01T11:58:29.254Z,4.19
2022-12-01T11:59:29.210Z,4.17
2022-12-01T12:00:29.211Z,4.17
2022-12-01T12:01:29.183Z,4.17
2022-12-01T12:02:29.236Z,4.17
2022-12-01T12:03:29.205Z,4.17
2022-12-01T12:04:29.145Z,4.17
2022-12-01T12:05:29.119Z,4.16
2022-12-01T12:06:39.894Z,4.17
2022-12-01T12:07:29.175Z,4.17
2022-12-01T12:08:29.148Z,4.20
2022-12-01T12:09:29.062Z,4.19
2022-12-01T12:10:29.127Z,4.19
2022-12-01T12:11:29.118Z,4.19
2022-12-01T12:12:29.017Z,4.17
2022-12-01T12:13:29.072Z,4.17
2022-12-01T12:14:29.015Z,4.19
2022-12-01T12:15:28.977Z,4.20
2022-12-01T12:16:31.979Z,4.19
2022-12-01T12:17:28.971Z,4.20
2022-12-01T12:18:28.952Z,4.20
2022-12-01T12:19:34.007Z,4.20
2022-12-01T12:20:28.994Z,4.22
2022-12-01T12:21:28.951Z,4.20
2022-12-01T12:22:28.897Z,4.19
2022-12-01T12:23:28.889Z,4.19
2022-12-01T12:24:28.866Z,4.16
2022-12-01T12:25:28.863Z,4.19
2022-12-01T12:26:28.840Z,4.16
2022-12-01T12:27:28.855Z,4.17
2022-12-01T12:28:28.808Z,4.16
2022-12-01T12:29:28.793Z,4.19
2022-12-01T12:30:28.832Z,4.16
2022-12-01T12:31:28.880Z,4.13
2022-12-01T12:32:28.751Z,4.12
2022-12-01T12:33:28.778Z,4.13
2022-12-01T12:34:28.731Z,4.13
2022-12-01T12:35:28.725Z,4.13
2022-12-01T12:36:28.732Z,4.13
2022-12-01T12:37:28.693Z,4.13
2022-12-01T12:38:28.670Z,4.12
2022-12-01T12:39:28.688Z,4.14
2022-12-01T12:40:28.693Z,4.16
2022-12-01T12:41:28.720Z,4.16
2022-12-01T12:42:28.664Z,4.14
2022-12-01T12:43:28.619Z,4.16
2022-12-01T12:44:32.431Z,4.17
2022-12-01T12:45:28.598Z,4.16
2022-12-01T12:46:28.697Z,4.17
2022-12-01T12:47:28.565Z,4.17
2022-12-01T12:48:28.546Z,4.14
2022-12-01T12:49:28.533Z,4.14
2022-12-01T12:50:28.523Z,4.14
2022-12-01T12:51:28.544Z,4.13
2022-12-01T12:52:28.489Z,4.13
2022-12-01T12:53:28.506Z,4.14
2022-12-01T12:54:28.533Z,4.14
2022-12-01T12:55:28.459Z,4.14
2022-12-01T12:56:28.468Z,4.14
2022-12-01T12:57:28.460Z,4.14
2022-12-01T12:58:28.415Z,4.13
2022-12-01T12:59:28.403Z,4.14
2022-12-01T13:00:28.399Z,4.14
2022-12-01T13:01:28.507Z,4.14
2022-12-01T13:02:28.377Z,4.08
2022-12-01T13:03:33.751Z,4.06
2022-12-01T13:04:28.352Z,4.04
2022-12-01T13:05:28.362Z,4.02
2022-12-01T13:06:28.302Z,4.04
2022-12-01T13:07:28.368Z,4.02
2022-12-01T13:08:28.271Z,4.01
2022-12-01T13:09:28.283Z,4.02
2022-12-01T13:10:28.270Z,4.04
2022-12-01T13:11:28.244Z,4.04
2022-12-01T13:12:28.228Z,4.04
2022-12-01T13:13:28.236Z,4.06
2022-12-01T13:14:28.196Z,4.04
2022-12-01T13:15:28.234Z,4.05
2022-12-01T13:16:28.264Z,4.05
2022-12-01T13:17:28.175Z,4.05
2022-12-01T13:18:28.150Z,4.06